sensor_id;sensor_type;location;lat;lon;timestamp;P1;durP1;ratioP1;P2;durP2;ratioP2
5460;SDS011;2753;49.196;8.286;2024-01-10T00:00:40;20.63;;;8.33;;
5460;SDS011;2753;49.196;8.286;2024-01-10T00:03:06;17.93;;;8.33;;
5460;SDS011;2753;49.196;8.286;2024-01-10T00:05:32;28.60;;;8.80;;
5460;SDS011;2753;49.196;8.286;2024-01-10T00:07:58;20.57;;;8.60;;
5460;SDS011;2753;49.196;8.286;2024-01-10T00:10:23;23.40;;;8.70;;
5460;SDS011;2753;49.196;8.286;2024-01-10T00:12:49;20.27;;;7.63;;
5460;SDS011;2753;49.196;8.286;2024-01-10T00:15:15;21.43;;;7.93;;
5460;SDS011;2753;49.196;8.286;2024-01-10T00:17:40;23.57;;;9.30;;
5460;SDS011;2753;49.196;8.286;2024-01-10T00:20:07;18.10;;;8.60;;
5460;SDS011;2753;49.196;8.286;2024-01-10T00:22:33;23.17;;;7.57;;
5460;SDS011;2753;49.196;8.286;2024-01-10T00:24:59;18.17;;;7.70;;
5460;SDS011;2753;49.196;8.286;2024-01-10T00:27:24;26.30;;;9.33;;
5460;SDS011;2753;49.196;8.286;2024-01-10T00:29:50;13.70;;;7.07;;
5460;SDS011;2753;49.196;8.286;2024-01-10T00:32:16;21.57;;;8.03;;
5460;SDS011;2753;49.196;8.286;2024-01-10T00:34:42;23.80;;;10.37;;
5460;SDS011;2753;49.196;8.286;2024-01-10T00:37:08;16.77;;;8.37;;
5460;SDS011;2753;49.196;8.286;2024-01-10T00:39:33;17.50;;;8.30;;
5460;SDS011;2753;49.196;8.286;2024-01-10T00:41:59;20.83;;;8.73;;
5460;SDS011;2753;49.196;8.286;2024-01-10T00:44:25;18.10;;;8.00;;
5460;SDS011;2753;49.196;8.286;2024-01-10T00:46:50;20.13;;;8.10;;
5460;SDS011;2753;49.196;8.286;2024-01-10T00:49:16;21.20;;;9.03;;
5460;SDS011;2753;49.196;8.286;2024-01-10T00:51:42;28.60;;;9.07;;
5460;SDS011;2753;49.196;8.286;2024-01-10T00:54:07;26.93;;;8.87;;
5460;SDS011;2753;49.196;8.286;2024-01-10T00:56:33;21.67;;;8.20;;
5460;SDS011;2753;49.196;8.286;2024-01-10T00:58:58;25.13;;;9.40;;
5460;SDS011;2753;49.196;8.286;2024-01-10T01:01:24;22.80;;;9.93;;
5460;SDS011;2753;49.196;8.286;2024-01-10T01:03:50;29.03;;;8.93;;
5460;SDS011;2753;49.196;8.286;2024-01-10T01:06:16;18.40;;;8.40;;
5460;SDS011;2753;49.196;8.286;2024-01-10T01:08:41;22.60;;;8.40;;
5460;SDS011;2753;49.196;8.286;2024-01-10T01:11:07;17.27;;;8.67;;
5460;SDS011;2753;49.196;8.286;2024-01-10T01:13:33;19.43;;;9.53;;
5460;SDS011;2753;49.196;8.286;2024-01-10T01:16:00;25.47;;;8.60;;
5460;SDS011;2753;49.196;8.286;2024-01-10T01:18:26;25.13;;;10.03;;
5460;SDS011;2753;49.196;8.286;2024-01-10T01:20:51;15.80;;;7.50;;
5460;SDS011;2753;49.196;8.286;2024-01-10T01:23:17;21.60;;;9.47;;
5460;SDS011;2753;49.196;8.286;2024-01-10T01:25:44;18.93;;;8.40;;
5460;SDS011;2753;49.196;8.286;2024-01-10T01:28:10;23.10;;;8.27;;
5460;SDS011;2753;49.196;8.286;2024-01-10T01:30:35;19.07;;;8.23;;
5460;SDS011;2753;49.196;8.286;2024-01-10T01:33:03;29.37;;;9.80;;
5460;SDS011;2753;49.196;8.286;2024-01-10T01:35:30;20.17;;;7.63;;
5460;SDS011;2753;49.196;8.286;2024-01-10T01:37:56;26.67;;;10.10;;
5460;SDS011;2753;49.196;8.286;2024-01-10T01:40:21;22.23;;;8.90;;
5460;SDS011;2753;49.196;8.286;2024-01-10T01:42:47;22.20;;;8.77;;
5460;SDS011;2753;49.196;8.286;2024-01-10T01:45:13;19.97;;;7.27;;
5460;SDS011;2753;49.196;8.286;2024-01-10T01:47:39;23.93;;;8.87;;
5460;SDS011;2753;49.196;8.286;2024-01-10T01:50:05;20.93;;;9.00;;
5460;SDS011;2753;49.196;8.286;2024-01-10T01:52:32;24.80;;;9.73;;
5460;SDS011;2753;49.196;8.286;2024-01-10T01:55:00;18.43;;;7.53;;
5460;SDS011;2753;49.196;8.286;2024-01-10T01:57:26;21.47;;;7.80;;
5460;SDS011;2753;49.196;8.286;2024-01-10T01:59:52;26.17;;;9.30;;
5460;SDS011;2753;49.196;8.286;2024-01-10T02:02:18;20.87;;;8.40;;
5460;SDS011;2753;49.196;8.286;2024-01-10T02:04:46;28.33;;;10.50;;
5460;SDS011;2753;49.196;8.286;2024-01-10T02:07:12;19.40;;;8.53;;
5460;SDS011;2753;49.196;8.286;2024-01-10T02:09:37;20.40;;;9.70;;
5460;SDS011;2753;49.196;8.286;2024-01-10T02:12:03;25.43;;;9.47;;
5460;SDS011;2753;49.196;8.286;2024-01-10T02:14:30;22.33;;;9.10;;
5460;SDS011;2753;49.196;8.286;2024-01-10T02:16:56;19.80;;;8.90;;
5460;SDS011;2753;49.196;8.286;2024-01-10T02:19:22;29.20;;;10.43;;
5460;SDS011;2753;49.196;8.286;2024-01-10T02:21:48;20.20;;;9.20;;
5460;SDS011;2753;49.196;8.286;2024-01-10T02:24:14;19.70;;;9.23;;
5460;SDS011;2753;49.196;8.286;2024-01-10T02:26:40;32.00;;;10.83;;
5460;SDS011;2753;49.196;8.286;2024-01-10T02:29:07;24.57;;;9.37;;
5460;SDS011;2753;49.196;8.286;2024-01-10T02:31:32;27.63;;;9.80;;
5460;SDS011;2753;49.196;8.286;2024-01-10T02:33:58;28.33;;;9.87;;
5460;SDS011;2753;49.196;8.286;2024-01-10T02:36:24;26.60;;;10.23;;
5460;SDS011;2753;49.196;8.286;2024-01-10T02:38:49;23.97;;;9.47;;
5460;SDS011;2753;49.196;8.286;2024-01-10T02:41:15;20.47;;;8.77;;
5460;SDS011;2753;49.196;8.286;2024-01-10T02:43:41;30.30;;;11.10;;
5460;SDS011;2753;49.196;8.286;2024-01-10T02:46:07;22.43;;;10.03;;
5460;SDS011;2753;49.196;8.286;2024-01-10T02:48:32;22.90;;;10.50;;
5460;SDS011;2753;49.196;8.286;2024-01-10T02:50:58;22.47;;;10.20;;
5460;SDS011;2753;49.196;8.286;2024-01-10T02:53:24;21.97;;;11.40;;
5460;SDS011;2753;49.196;8.286;2024-01-10T02:55:50;28.07;;;10.30;;
5460;SDS011;2753;49.196;8.286;2024-01-10T02:58:15;27.77;;;10.37;;
5460;SDS011;2753;49.196;8.286;2024-01-10T03:00:41;21.13;;;8.97;;
5460;SDS011;2753;49.196;8.286;2024-01-10T03:03:07;26.63;;;11.70;;
5460;SDS011;2753;49.196;8.286;2024-01-10T03:05:32;24.67;;;10.40;;
5460;SDS011;2753;49.196;8.286;2024-01-10T03:07:58;23.63;;;9.67;;
5460;SDS011;2753;49.196;8.286;2024-01-10T03:10:24;29.90;;;10.30;;
5460;SDS011;2753;49.196;8.286;2024-01-10T03:12:49;25.77;;;9.87;;
5460;SDS011;2753;49.196;8.286;2024-01-10T03:15:18;24.13;;;10.50;;
5460;SDS011;2753;49.196;8.286;2024-01-10T03:17:44;33.70;;;11.67;;
5460;SDS011;2753;49.196;8.286;2024-01-10T03:20:10;28.03;;;10.50;;
5460;SDS011;2753;49.196;8.286;2024-01-10T03:22:36;33.00;;;11.87;;
5460;SDS011;2753;49.196;8.286;2024-01-10T03:25:02;30.30;;;11.00;;
5460;SDS011;2753;49.196;8.286;2024-01-10T03:27:28;26.60;;;10.53;;
5460;SDS011;2753;49.196;8.286;2024-01-10T03:29:54;31.57;;;11.20;;
5460;SDS011;2753;49.196;8.286;2024-01-10T03:32:19;28.67;;;11.30;;
5460;SDS011;2753;49.196;8.286;2024-01-10T03:34:45;23.67;;;10.23;;
5460;SDS011;2753;49.196;8.286;2024-01-10T03:37:11;28.80;;;10.33;;
5460;SDS011;2753;49.196;8.286;2024-01-10T03:39:37;26.00;;;10.50;;
5460;SDS011;2753;49.196;8.286;2024-01-10T03:42:02;33.67;;;11.87;;
5460;SDS011;2753;49.196;8.286;2024-01-10T03:44:28;26.53;;;10.27;;
5460;SDS011;2753;49.196;8.286;2024-01-10T03:46:54;24.63;;;10.30;;
5460;SDS011;2753;49.196;8.286;2024-01-10T03:49:19;29.57;;;10.63;;
5460;SDS011;2753;49.196;8.286;2024-01-10T03:51:45;24.63;;;10.43;;
5460;SDS011;2753;49.196;8.286;2024-01-10T03:54:11;35.20;;;12.10;;
5460;SDS011;2753;49.196;8.286;2024-01-10T03:56:37;22.73;;;10.47;;
5460;SDS011;2753;49.196;8.286;2024-01-10T03:59:02;25.83;;;10.60;;
5460;SDS011;2753;49.196;8.286;2024-01-10T04:01:28;31.77;;;12.20;;
5460;SDS011;2753;49.196;8.286;2024-01-10T04:03:54;24.47;;;10.20;;
5460;SDS011;2753;49.196;8.286;2024-01-10T04:06:19;33.30;;;11.03;;
5460;SDS011;2753;49.196;8.286;2024-01-10T04:08:45;28.90;;;10.50;;
5460;SDS011;2753;49.196;8.286;2024-01-10T04:11:11;27.27;;;11.33;;
5460;SDS011;2753;49.196;8.286;2024-01-10T04:13:40;28.57;;;11.23;;
5460;SDS011;2753;49.196;8.286;2024-01-10T04:16:06;27.23;;;10.03;;
5460;SDS011;2753;49.196;8.286;2024-01-10T04:18:31;20.73;;;10.10;;
5460;SDS011;2753;49.196;8.286;2024-01-10T04:20:57;29.80;;;11.57;;
5460;SDS011;2753;49.196;8.286;2024-01-10T04:23:23;26.83;;;11.13;;
5460;SDS011;2753;49.196;8.286;2024-01-10T04:25:48;39.37;;;12.53;;
5460;SDS011;2753;49.196;8.286;2024-01-10T04:28:14;23.73;;;10.47;;
5460;SDS011;2753;49.196;8.286;2024-01-10T04:30:40;25.70;;;10.90;;
5460;SDS011;2753;49.196;8.286;2024-01-10T04:33:05;24.20;;;10.83;;
5460;SDS011;2753;49.196;8.286;2024-01-10T04:35:31;26.77;;;10.50;;
5460;SDS011;2753;49.196;8.286;2024-01-10T04:37:57;27.33;;;10.10;;
5460;SDS011;2753;49.196;8.286;2024-01-10T04:40:23;31.13;;;13.47;;
5460;SDS011;2753;49.196;8.286;2024-01-10T04:42:49;29.67;;;11.97;;
5460;SDS011;2753;49.196;8.286;2024-01-10T04:45:14;31.10;;;11.03;;
5460;SDS011;2753;49.196;8.286;2024-01-10T04:47:41;30.47;;;12.33;;
5460;SDS011;2753;49.196;8.286;2024-01-10T04:50:07;30.60;;;11.57;;
5460;SDS011;2753;49.196;8.286;2024-01-10T04:52:33;25.40;;;10.10;;
5460;SDS011;2753;49.196;8.286;2024-01-10T04:54:59;26.60;;;11.07;;
5460;SDS011;2753;49.196;8.286;2024-01-10T04:57:25;32.50;;;11.90;;
5460;SDS011;2753;49.196;8.286;2024-01-10T04:59:50;25.10;;;10.37;;
5460;SDS011;2753;49.196;8.286;2024-01-10T05:02:16;29.20;;;11.50;;
5460;SDS011;2753;49.196;8.286;2024-01-10T05:04:42;26.90;;;11.30;;
5460;SDS011;2753;49.196;8.286;2024-01-10T05:07:07;33.27;;;11.27;;
5460;SDS011;2753;49.196;8.286;2024-01-10T05:09:33;34.17;;;11.50;;
5460;SDS011;2753;49.196;8.286;2024-01-10T05:11:59;26.67;;;11.33;;
5460;SDS011;2753;49.196;8.286;2024-01-10T05:14:24;25.73;;;9.87;;
5460;SDS011;2753;49.196;8.286;2024-01-10T05:16:50;23.70;;;10.87;;
5460;SDS011;2753;49.196;8.286;2024-01-10T05:19:18;34.33;;;13.20;;
5460;SDS011;2753;49.196;8.286;2024-01-10T05:21:44;26.87;;;11.90;;
5460;SDS011;2753;49.196;8.286;2024-01-10T05:24:10;28.40;;;11.40;;
5460;SDS011;2753;49.196;8.286;2024-01-10T05:26:38;28.60;;;11.63;;
5460;SDS011;2753;49.196;8.286;2024-01-10T05:29:04;38.23;;;11.87;;
5460;SDS011;2753;49.196;8.286;2024-01-10T05:31:30;32.90;;;13.30;;
5460;SDS011;2753;49.196;8.286;2024-01-10T05:33:56;33.87;;;13.77;;
5460;SDS011;2753;49.196;8.286;2024-01-10T05:36:22;34.57;;;14.17;;
5460;SDS011;2753;49.196;8.286;2024-01-10T05:38:48;29.13;;;12.37;;
5460;SDS011;2753;49.196;8.286;2024-01-10T05:41:13;39.30;;;13.50;;
5460;SDS011;2753;49.196;8.286;2024-01-10T05:43:39;37.00;;;11.77;;
5460;SDS011;2753;49.196;8.286;2024-01-10T05:46:06;34.23;;;12.80;;
5460;SDS011;2753;49.196;8.286;2024-01-10T05:48:31;24.87;;;11.20;;
5460;SDS011;2753;49.196;8.286;2024-01-10T05:50:57;40.97;;;11.67;;
5460;SDS011;2753;49.196;8.286;2024-01-10T05:53:29;33.30;;;13.17;;
5460;SDS011;2753;49.196;8.286;2024-01-10T05:55:55;32.87;;;13.43;;
5460;SDS011;2753;49.196;8.286;2024-01-10T05:58:21;36.37;;;12.50;;
5460;SDS011;2753;49.196;8.286;2024-01-10T06:00:47;27.60;;;12.70;;
5460;SDS011;2753;49.196;8.286;2024-01-10T06:03:13;32.37;;;14.10;;
5460;SDS011;2753;49.196;8.286;2024-01-10T06:05:38;38.07;;;12.80;;
5460;SDS011;2753;49.196;8.286;2024-01-10T06:08:04;28.57;;;11.57;;
5460;SDS011;2753;49.196;8.286;2024-01-10T06:10:30;32.33;;;12.33;;
5460;SDS011;2753;49.196;8.286;2024-01-10T06:12:56;34.80;;;12.80;;
5460;SDS011;2753;49.196;8.286;2024-01-10T06:15:22;27.60;;;11.97;;
5460;SDS011;2753;49.196;8.286;2024-01-10T06:17:47;33.23;;;12.37;;
5460;SDS011;2753;49.196;8.286;2024-01-10T06:20:14;29.37;;;12.10;;
5460;SDS011;2753;49.196;8.286;2024-01-10T06:22:40;31.57;;;12.70;;
5460;SDS011;2753;49.196;8.286;2024-01-10T06:25:06;30.70;;;12.63;;
5460;SDS011;2753;49.196;8.286;2024-01-10T06:27:32;37.63;;;12.57;;
5460;SDS011;2753;49.196;8.286;2024-01-10T06:29:58;27.83;;;12.37;;
5460;SDS011;2753;49.196;8.286;2024-01-10T06:32:24;35.30;;;12.87;;
5460;SDS011;2753;49.196;8.286;2024-01-10T06:34:50;34.43;;;12.27;;
5460;SDS011;2753;49.196;8.286;2024-01-10T06:37:21;39.47;;;13.67;;
5460;SDS011;2753;49.196;8.286;2024-01-10T06:39:46;35.80;;;14.70;;
5460;SDS011;2753;49.196;8.286;2024-01-10T06:42:12;34.43;;;13.30;;
5460;SDS011;2753;49.196;8.286;2024-01-10T06:44:38;37.43;;;14.20;;
5460;SDS011;2753;49.196;8.286;2024-01-10T06:47:03;41.03;;;11.77;;
5460;SDS011;2753;49.196;8.286;2024-01-10T06:49:29;29.53;;;12.20;;
5460;SDS011;2753;49.196;8.286;2024-01-10T06:51:55;37.57;;;14.00;;
5460;SDS011;2753;49.196;8.286;2024-01-10T06:54:21;41.27;;;13.00;;
5460;SDS011;2753;49.196;8.286;2024-01-10T06:56:47;38.20;;;14.63;;
5460;SDS011;2753;49.196;8.286;2024-01-10T06:59:14;31.47;;;12.97;;
5460;SDS011;2753;49.196;8.286;2024-01-10T07:01:39;26.97;;;12.13;;
5460;SDS011;2753;49.196;8.286;2024-01-10T07:04:05;38.27;;;12.30;;
5460;SDS011;2753;49.196;8.286;2024-01-10T07:06:31;29.60;;;12.90;;
5460;SDS011;2753;49.196;8.286;2024-01-10T07:08:57;29.73;;;12.20;;
5460;SDS011;2753;49.196;8.286;2024-01-10T07:11:23;38.20;;;12.77;;
5460;SDS011;2753;49.196;8.286;2024-01-10T07:13:49;43.47;;;14.17;;
5460;SDS011;2753;49.196;8.286;2024-01-10T07:16:15;43.30;;;15.10;;
5460;SDS011;2753;49.196;8.286;2024-01-10T07:18:41;30.83;;;13.90;;
5460;SDS011;2753;49.196;8.286;2024-01-10T07:21:08;41.97;;;13.60;;
5460;SDS011;2753;49.196;8.286;2024-01-10T07:23:34;36.63;;;14.90;;
5460;SDS011;2753;49.196;8.286;2024-01-10T07:26:00;46.43;;;15.90;;
5460;SDS011;2753;49.196;8.286;2024-01-10T07:28:26;42.60;;;16.00;;
5460;SDS011;2753;49.196;8.286;2024-01-10T07:30:51;41.50;;;14.33;;
5460;SDS011;2753;49.196;8.286;2024-01-10T07:33:17;38.23;;;13.07;;
5460;SDS011;2753;49.196;8.286;2024-01-10T07:35:46;37.47;;;13.27;;
5460;SDS011;2753;49.196;8.286;2024-01-10T07:38:12;29.63;;;12.20;;
5460;SDS011;2753;49.196;8.286;2024-01-10T07:40:37;35.77;;;12.87;;
5460;SDS011;2753;49.196;8.286;2024-01-10T07:43:03;39.30;;;13.50;;
5460;SDS011;2753;49.196;8.286;2024-01-10T07:45:29;31.73;;;14.10;;
5460;SDS011;2753;49.196;8.286;2024-01-10T07:47:55;29.37;;;12.70;;
5460;SDS011;2753;49.196;8.286;2024-01-10T07:50:21;34.23;;;14.00;;
5460;SDS011;2753;49.196;8.286;2024-01-10T07:52:52;37.57;;;13.97;;
5460;SDS011;2753;49.196;8.286;2024-01-10T07:55:17;38.00;;;13.30;;
5460;SDS011;2753;49.196;8.286;2024-01-10T07:57:43;39.00;;;13.63;;
5460;SDS011;2753;49.196;8.286;2024-01-10T08:00:09;30.47;;;14.00;;
5460;SDS011;2753;49.196;8.286;2024-01-10T08:02:36;31.70;;;14.10;;
5460;SDS011;2753;49.196;8.286;2024-01-10T08:05:02;36.20;;;13.30;;
5460;SDS011;2753;49.196;8.286;2024-01-10T08:07:34;31.40;;;12.70;;
5460;SDS011;2753;49.196;8.286;2024-01-10T08:10:04;40.13;;;13.63;;
5460;SDS011;2753;49.196;8.286;2024-01-10T08:12:31;37.80;;;13.73;;
5460;SDS011;2753;49.196;8.286;2024-01-10T08:14:57;33.13;;;13.30;;
5460;SDS011;2753;49.196;8.286;2024-01-10T08:17:22;29.50;;;12.80;;
5460;SDS011;2753;49.196;8.286;2024-01-10T08:19:48;44.07;;;13.80;;
5460;SDS011;2753;49.196;8.286;2024-01-10T08:22:14;33.27;;;12.87;;
5460;SDS011;2753;49.196;8.286;2024-01-10T08:24:40;43.53;;;13.30;;
5460;SDS011;2753;49.196;8.286;2024-01-10T08:27:06;34.43;;;14.10;;
5460;SDS011;2753;49.196;8.286;2024-01-10T08:29:32;30.63;;;11.90;;
5460;SDS011;2753;49.196;8.286;2024-01-10T08:32:04;31.67;;;13.13;;
5460;SDS011;2753;49.196;8.286;2024-01-10T08:34:30;40.27;;;13.70;;
5460;SDS011;2753;49.196;8.286;2024-01-10T08:36:57;34.67;;;13.87;;
5460;SDS011;2753;49.196;8.286;2024-01-10T08:39:22;31.40;;;13.63;;
5460;SDS011;2753;49.196;8.286;2024-01-10T08:41:50;39.30;;;13.43;;
5460;SDS011;2753;49.196;8.286;2024-01-10T08:44:17;33.90;;;14.13;;
5460;SDS011;2753;49.196;8.286;2024-01-10T08:46:43;34.47;;;13.47;;
5460;SDS011;2753;49.196;8.286;2024-01-10T08:49:09;36.33;;;14.33;;
5460;SDS011;2753;49.196;8.286;2024-01-10T08:51:35;44.70;;;14.80;;
5460;SDS011;2753;49.196;8.286;2024-01-10T08:54:00;32.57;;;14.13;;
5460;SDS011;2753;49.196;8.286;2024-01-10T08:56:26;32.67;;;13.50;;
5460;SDS011;2753;49.196;8.286;2024-01-10T08:58:52;33.97;;;14.10;;
5460;SDS011;2753;49.196;8.286;2024-01-10T09:01:18;46.70;;;14.07;;
5460;SDS011;2753;49.196;8.286;2024-01-10T09:03:44;39.07;;;15.07;;
5460;SDS011;2753;49.196;8.286;2024-01-10T09:06:09;47.73;;;16.80;;
5460;SDS011;2753;49.196;8.286;2024-01-10T09:08:35;40.50;;;14.83;;
5460;SDS011;2753;49.196;8.286;2024-01-10T09:11:01;38.97;;;15.47;;
5460;SDS011;2753;49.196;8.286;2024-01-10T09:13:28;39.73;;;13.63;;
5460;SDS011;2753;49.196;8.286;2024-01-10T09:15:53;38.33;;;14.30;;
5460;SDS011;2753;49.196;8.286;2024-01-10T09:18:19;47.23;;;14.40;;
5460;SDS011;2753;49.196;8.286;2024-01-10T09:20:45;34.93;;;13.47;;
5460;SDS011;2753;49.196;8.286;2024-01-10T09:23:13;36.13;;;13.70;;
5460;SDS011;2753;49.196;8.286;2024-01-10T09:25:39;31.37;;;13.30;;
5460;SDS011;2753;49.196;8.286;2024-01-10T09:28:05;40.17;;;14.60;;
5460;SDS011;2753;49.196;8.286;2024-01-10T09:30:31;38.37;;;13.90;;
5460;SDS011;2753;49.196;8.286;2024-01-10T09:32:57;33.27;;;12.93;;
5460;SDS011;2753;49.196;8.286;2024-01-10T09:35:24;35.83;;;13.80;;
5460;SDS011;2753;49.196;8.286;2024-01-10T09:37:50;35.47;;;15.00;;
5460;SDS011;2753;49.196;8.286;2024-01-10T09:40:18;33.87;;;12.00;;
5460;SDS011;2753;49.196;8.286;2024-01-10T09:42:47;47.53;;;16.20;;
5460;SDS011;2753;49.196;8.286;2024-01-10T09:45:16;35.27;;;12.93;;
5460;SDS011;2753;49.196;8.286;2024-01-10T09:47:45;42.83;;;14.80;;
5460;SDS011;2753;49.196;8.286;2024-01-10T09:50:14;34.23;;;14.20;;
5460;SDS011;2753;49.196;8.286;2024-01-10T09:52:41;35.30;;;14.90;;
5460;SDS011;2753;49.196;8.286;2024-01-10T09:55:14;33.50;;;12.67;;
5460;SDS011;2753;49.196;8.286;2024-01-10T09:57:41;30.57;;;13.30;;
5460;SDS011;2753;49.196;8.286;2024-01-10T10:00:08;34.43;;;12.73;;
5460;SDS011;2753;49.196;8.286;2024-01-10T10:02:39;35.60;;;13.60;;
5460;SDS011;2753;49.196;8.286;2024-01-10T10:05:10;35.37;;;14.10;;
5460;SDS011;2753;49.196;8.286;2024-01-10T10:07:44;32.87;;;12.50;;
5460;SDS011;2753;49.196;8.286;2024-01-10T10:10:10;31.10;;;11.40;;
5460;SDS011;2753;49.196;8.286;2024-01-10T10:12:47;35.17;;;13.40;;
5460;SDS011;2753;49.196;8.286;2024-01-10T10:15:17;28.00;;;12.43;;
5460;SDS011;2753;49.196;8.286;2024-01-10T10:17:44;33.07;;;11.40;;
5460;SDS011;2753;49.196;8.286;2024-01-10T10:20:24;35.83;;;12.00;;
5460;SDS011;2753;49.196;8.286;2024-01-10T10:28:01;33.83;;;13.80;;
5460;SDS011;2753;49.196;8.286;2024-01-10T10:30:28;19.70;;;9.33;;
5460;SDS011;2753;49.196;8.286;2024-01-10T10:32:55;38.53;;;14.20;;
5460;SDS011;2753;49.196;8.286;2024-01-10T10:35:21;24.87;;;11.57;;
5460;SDS011;2753;49.196;8.286;2024-01-10T10:37:48;37.27;;;10.80;;
5460;SDS011;2753;49.196;8.286;2024-01-10T10:40:15;17.77;;;9.67;;
5460;SDS011;2753;49.196;8.286;2024-01-10T10:42:43;25.27;;;11.90;;
5460;SDS011;2753;49.196;8.286;2024-01-10T10:45:16;29.87;;;11.83;;
5460;SDS011;2753;49.196;8.286;2024-01-10T10:47:44;31.87;;;9.70;;
5460;SDS011;2753;49.196;8.286;2024-01-10T10:50:16;26.60;;;11.27;;
5460;SDS011;2753;49.196;8.286;2024-01-10T10:52:48;28.50;;;12.43;;
5460;SDS011;2753;49.196;8.286;2024-01-10T10:55:15;33.37;;;13.40;;
5460;SDS011;2753;49.196;8.286;2024-01-10T10:57:45;27.97;;;11.03;;
5460;SDS011;2753;49.196;8.286;2024-01-10T11:00:19;28.67;;;11.50;;
5460;SDS011;2753;49.196;8.286;2024-01-10T11:02:47;30.00;;;12.80;;
5460;SDS011;2753;49.196;8.286;2024-01-10T11:05:13;30.10;;;12.13;;
5460;SDS011;2753;49.196;8.286;2024-01-10T11:07:39;31.13;;;13.73;;
5460;SDS011;2753;49.196;8.286;2024-01-10T11:10:08;29.13;;;12.57;;
5460;SDS011;2753;49.196;8.286;2024-01-10T11:13:00;29.03;;;11.37;;
5460;SDS011;2753;49.196;8.286;2024-01-10T11:18:12;34.17;;;13.27;;
5460;SDS011;2753;49.196;8.286;2024-01-10T11:26:24;33.63;;;12.33;;
5460;SDS011;2753;49.196;8.286;2024-01-10T11:28:51;30.97;;;12.43;;
5460;SDS011;2753;49.196;8.286;2024-01-10T11:31:26;48.23;;;13.50;;
5460;SDS011;2753;49.196;8.286;2024-01-10T11:33:55;25.00;;;10.50;;
5460;SDS011;2753;49.196;8.286;2024-01-10T11:36:22;30.23;;;12.93;;
5460;SDS011;2753;49.196;8.286;2024-01-10T11:38:53;34.13;;;13.07;;
5460;SDS011;2753;49.196;8.286;2024-01-10T11:46:39;35.67;;;12.83;;
5460;SDS011;2753;49.196;8.286;2024-01-10T11:49:12;25.70;;;10.40;;
5460;SDS011;2753;49.196;8.286;2024-01-10T11:51:43;35.63;;;13.50;;
5460;SDS011;2753;49.196;8.286;2024-01-10T11:54:11;27.67;;;11.93;;
5460;SDS011;2753;49.196;8.286;2024-01-10T11:56:40;29.47;;;12.17;;
5460;SDS011;2753;49.196;8.286;2024-01-10T11:59:07;29.23;;;12.97;;
5460;SDS011;2753;49.196;8.286;2024-01-10T12:01:38;35.83;;;16.07;;
5460;SDS011;2753;49.196;8.286;2024-01-10T12:04:05;26.97;;;11.53;;
5460;SDS011;2753;49.196;8.286;2024-01-10T12:06:35;40.13;;;14.20;;
5460;SDS011;2753;49.196;8.286;2024-01-10T12:09:01;30.53;;;12.60;;
5460;SDS011;2753;49.196;8.286;2024-01-10T12:11:37;27.17;;;12.37;;
5460;SDS011;2753;49.196;8.286;2024-01-10T12:14:04;29.60;;;13.20;;
5460;SDS011;2753;49.196;8.286;2024-01-10T12:16:32;34.87;;;13.50;;
5460;SDS011;2753;49.196;8.286;2024-01-10T12:18:58;46.00;;;19.30;;
5460;SDS011;2753;49.196;8.286;2024-01-10T12:21:24;27.43;;;13.20;;
5460;SDS011;2753;49.196;8.286;2024-01-10T12:23:49;28.97;;;12.93;;
5460;SDS011;2753;49.196;8.286;2024-01-10T12:26:16;31.93;;;13.60;;
5460;SDS011;2753;49.196;8.286;2024-01-10T12:28:52;30.67;;;12.80;;
5460;SDS011;2753;49.196;8.286;2024-01-10T12:31:28;33.17;;;10.33;;
5460;SDS011;2753;49.196;8.286;2024-01-10T12:33:55;27.57;;;13.00;;
5460;SDS011;2753;49.196;8.286;2024-01-10T13:07:25;37.27;;;14.37;;
5460;SDS011;2753;49.196;8.286;2024-01-10T13:09:52;27.47;;;11.70;;
5460;SDS011;2753;49.196;8.286;2024-01-10T13:12:19;30.07;;;13.90;;
5460;SDS011;2753;49.196;8.286;2024-01-10T13:14:45;30.17;;;14.37;;
5460;SDS011;2753;49.196;8.286;2024-01-10T13:17:11;37.20;;;13.67;;
5460;SDS011;2753;49.196;8.286;2024-01-10T13:19:36;27.37;;;12.63;;
5460;SDS011;2753;49.196;8.286;2024-01-10T13:22:02;33.70;;;12.77;;
5460;SDS011;2753;49.196;8.286;2024-01-10T13:24:28;32.27;;;13.87;;
5460;SDS011;2753;49.196;8.286;2024-01-10T13:26:55;32.93;;;13.50;;
5460;SDS011;2753;49.196;8.286;2024-01-10T13:29:20;33.40;;;14.37;;
5460;SDS011;2753;49.196;8.286;2024-01-10T13:31:47;27.87;;;12.27;;
5460;SDS011;2753;49.196;8.286;2024-01-10T13:34:14;24.70;;;11.30;;
5460;SDS011;2753;49.196;8.286;2024-01-10T13:36:40;36.63;;;15.17;;
5460;SDS011;2753;49.196;8.286;2024-01-10T13:39:06;36.57;;;14.77;;
5460;SDS011;2753;49.196;8.286;2024-01-10T13:41:32;30.43;;;13.50;;
5460;SDS011;2753;49.196;8.286;2024-01-10T13:43:58;34.37;;;13.27;;
5460;SDS011;2753;49.196;8.286;2024-01-10T13:46:24;29.70;;;13.17;;
5460;SDS011;2753;49.196;8.286;2024-01-10T13:48:50;31.37;;;13.20;;
5460;SDS011;2753;49.196;8.286;2024-01-10T13:51:16;27.10;;;12.83;;
5460;SDS011;2753;49.196;8.286;2024-01-10T13:53:41;31.10;;;12.80;;
5460;SDS011;2753;49.196;8.286;2024-01-10T13:56:11;30.93;;;14.20;;
5460;SDS011;2753;49.196;8.286;2024-01-10T13:58:37;97.53;;;27.27;;
5460;SDS011;2753;49.196;8.286;2024-01-10T14:01:03;32.00;;;14.30;;
5460;SDS011;2753;49.196;8.286;2024-01-10T14:03:29;35.90;;;14.47;;
5460;SDS011;2753;49.196;8.286;2024-01-10T14:05:54;28.27;;;14.23;;
5460;SDS011;2753;49.196;8.286;2024-01-10T14:08:20;27.40;;;11.90;;
5460;SDS011;2753;49.196;8.286;2024-01-10T14:10:46;31.07;;;13.37;;
5460;SDS011;2753;49.196;8.286;2024-01-10T14:13:12;29.53;;;14.00;;
5460;SDS011;2753;49.196;8.286;2024-01-10T14:15:38;27.90;;;13.23;;
5460;SDS011;2753;49.196;8.286;2024-01-10T14:18:04;38.63;;;13.50;;
5460;SDS011;2753;49.196;8.286;2024-01-10T14:20:29;36.43;;;15.27;;
5460;SDS011;2753;49.196;8.286;2024-01-10T14:22:55;28.93;;;12.70;;
5460;SDS011;2753;49.196;8.286;2024-01-10T14:25:21;33.60;;;13.97;;
5460;SDS011;2753;49.196;8.286;2024-01-10T14:27:47;35.53;;;14.27;;
5460;SDS011;2753;49.196;8.286;2024-01-10T14:30:15;34.30;;;14.20;;
5460;SDS011;2753;49.196;8.286;2024-01-10T14:32:41;33.50;;;13.47;;
5460;SDS011;2753;49.196;8.286;2024-01-10T14:35:07;40.20;;;14.73;;
5460;SDS011;2753;49.196;8.286;2024-01-10T14:37:33;30.80;;;14.33;;
5460;SDS011;2753;49.196;8.286;2024-01-10T14:40:01;39.37;;;15.63;;
5460;SDS011;2753;49.196;8.286;2024-01-10T14:42:28;38.13;;;14.90;;
5460;SDS011;2753;49.196;8.286;2024-01-10T14:44:54;27.97;;;13.50;;
5460;SDS011;2753;49.196;8.286;2024-01-10T14:47:20;27.80;;;13.20;;
5460;SDS011;2753;49.196;8.286;2024-01-10T14:49:46;32.77;;;13.87;;
5460;SDS011;2753;49.196;8.286;2024-01-10T14:52:12;43.40;;;17.80;;
5460;SDS011;2753;49.196;8.286;2024-01-10T14:54:38;31.20;;;14.57;;
5460;SDS011;2753;49.196;8.286;2024-01-10T14:57:03;36.67;;;15.87;;
5460;SDS011;2753;49.196;8.286;2024-01-10T14:59:29;34.13;;;15.60;;
5460;SDS011;2753;49.196;8.286;2024-01-10T15:01:55;34.87;;;14.13;;
5460;SDS011;2753;49.196;8.286;2024-01-10T15:04:21;39.07;;;13.80;;
5460;SDS011;2753;49.196;8.286;2024-01-10T15:06:46;30.03;;;12.67;;
5460;SDS011;2753;49.196;8.286;2024-01-10T15:09:13;52.10;;;20.80;;
5460;SDS011;2753;49.196;8.286;2024-01-10T15:11:39;49.77;;;18.93;;
5460;SDS011;2753;49.196;8.286;2024-01-10T15:14:06;35.10;;;15.87;;
5460;SDS011;2753;49.196;8.286;2024-01-10T15:16:38;40.00;;;16.00;;
5460;SDS011;2753;49.196;8.286;2024-01-10T15:19:04;33.73;;;15.90;;
5460;SDS011;2753;49.196;8.286;2024-01-10T15:21:30;31.93;;;15.47;;
5460;SDS011;2753;49.196;8.286;2024-01-10T15:23:56;33.07;;;15.33;;
5460;SDS011;2753;49.196;8.286;2024-01-10T15:26:21;33.50;;;15.23;;
5460;SDS011;2753;49.196;8.286;2024-01-10T15:28:48;40.60;;;14.73;;
5460;SDS011;2753;49.196;8.286;2024-01-10T15:31:15;32.53;;;14.60;;
5460;SDS011;2753;49.196;8.286;2024-01-10T15:33:44;39.07;;;16.53;;
5460;SDS011;2753;49.196;8.286;2024-01-10T15:36:09;33.50;;;15.30;;